Time;durP1;ratioP1;P1;durP2;ratioP2;P2;SDS_P1;SDS_P2;PMS_P1;PMS_P2;Temp;Humidity;BMP_temperature;BMP_pressure;BME280_temperature;BME280_humidity;BME280_pressure;Samples;Min_cycle;Max_cycle;Signal;HPM_P1;HPM_P2
2022/04/25 00:01:57;;;;;;;1.57;1.40;;;;;;;;;;5001948;28;20199;-64
2022/04/25 00:04:26;;;;;;;1.47;1.37;;;;;;;;;;5012672;28;20199;-65
2022/04/25 00:06:56;;;;;;;2.97;1.47;;;;;;;;;;5009884;28;20911;-65
2022/04/25 00:09:23;;;;;;;1.60;1.27;;;;;;;;;;5007076;28;20196;-64
2022/04/25 00:11:50;;;;;;;2.00;1.63;;;;;;;;;;5008382;28;20207;-65
2022/04/25 00:14:18;;;;;;;1.63;1.40;;;;;;;;;;5013745;28;20680;-65
2022/04/25 00:16:45;;;;;;;1.67;1.57;;;;;;;;;;5009998;28;20306;-64
2022/04/25 00:19:12;;;;;;;2.03;1.70;;;;;;;;;;5009315;28;20206;-64
2022/04/25 00:21:39;;;;;;;1.40;1.30;;;;;;;;;;5006949;28;20757;-65
2022/04/25 00:24:06;;;;;;;2.00;1.70;;;;;;;;;;5011174;28;20650;-64
2022/04/25 00:26:33;;;;;;;4.10;1.40;;;;;;;;;;5009988;28;20238;-64
2022/04/25 00:29:00;;;;;;;1.50;1.30;;;;;;;;;;5008884;28;20211;-65
2022/04/25 00:31:28;;;;;;;2.10;1.50;;;;;;;;;;5006961;28;20211;-64
2022/04/25 00:33:55;;;;;;;1.50;1.40;;;;;;;;;;5014940;28;20223;-65
2022/04/25 00:36:22;;;;;;;1.73;1.40;;;;;;;;;;4991522;28;20208;-65
2022/04/25 00:38:49;;;;;;;2.27;1.60;;;;;;;;;;4999213;28;20192;-64
2022/04/25 00:41:16;;;;;;;3.23;1.90;;;;;;;;;;5009901;28;20203;-65
2022/04/25 00:43:44;;;;;;;1.97;1.50;;;;;;;;;;5015076;28;20254;-65
2022/04/25 00:46:20;;;;;;;2.40;1.50;;;;;;;;;;5010410;28;20196;-65
2022/04/25 00:48:48;;;;;;;2.43;1.77;;;;;;;;;;5007392;28;20207;-65
2022/04/25 00:51:16;;;;;;;1.83;1.40;;;;;;;;;;5010063;28;20839;-65
2022/04/25 00:53:44;;;;;;;2.47;1.57;;;;;;;;;;4975273;28;20291;-65
2022/04/25 00:56:13;;;;;;;1.60;1.50;;;;;;;;;;4977245;28;20224;-65
2022/04/25 00:58:40;;;;;;;1.73;1.60;;;;;;;;;;4983199;28;20189;-65
2022/04/25 01:01:07;;;;;;;2.27;1.70;;;;;;;;;;4967781;28;20545;-65
2022/04/25 01:03:35;;;;;;;1.83;1.73;;;;;;;;;;4974389;28;20898;-65
2022/04/25 01:06:02;;;;;;;1.60;1.40;;;;;;;;;;4970684;28;20272;-65
2022/04/25 01:08:33;;;;;;;1.80;1.70;;;;;;;;;;4970185;28;20212;-64
2022/04/25 01:11:01;;;;;;;1.57;1.43;;;;;;;;;;4970155;28;20197;-64
2022/04/25 01:13:28;;;;;;;2.17;1.37;;;;;;;;;;4973871;28;20224;-64
2022/04/25 01:15:55;;;;;;;1.97;1.30;;;;;;;;;;4970392;28;20836;-64
2022/04/25 01:18:22;;;;;;;1.80;1.70;;;;;;;;;;4970275;28;20196;-64
2022/04/25 01:20:51;;;;;;;1.87;1.67;;;;;;;;;;4969764;28;20283;-65
2022/04/25 01:28:52;;;;;;;1.50;1.40;;;;;;;;;;4970083;28;20243;-64
2022/04/25 01:31:19;;;;;;;2.67;1.70;;;;;;;;;;4967546;28;20667;-64
2022/04/25 01:33:47;;;;;;;2.00;1.80;;;;;;;;;;4980264;28;20209;-64
2022/04/25 01:36:14;;;;;;;1.37;1.27;;;;;;;;;;4968097;28;20208;-64
2022/04/25 01:38:41;;;;;;;2.20;1.83;;;;;;;;;;4969856;28;20624;-64
2022/04/25 01:41:08;;;;;;;1.60;1.50;;;;;;;;;;4970098;28;20213;-64
2022/04/25 01:43:36;;;;;;;2.53;1.50;;;;;;;;;;4978032;28;20199;-64
2022/04/25 01:46:03;;;;;;;1.97;1.70;;;;;;;;;;4970220;28;20201;-64
2022/04/25 01:48:31;;;;;;;2.97;2.20;;;;;;;;;;4967695;28;20212;-64
2022/04/25 01:50:58;;;;;;;1.87;1.60;;;;;;;;;;4969724;28;20244;-64
2022/04/25 01:53:25;;;;;;;1.70;1.60;;;;;;;;;;5018124;28;20800;-64
2022/04/25 01:55:53;;;;;;;1.83;1.73;;;;;;;;;;5007173;28;20219;-64
2022/04/25 01:58:20;;;;;;;1.90;1.50;;;;;;;;;;5008396;28;20242;-63
2022/04/25 02:00:49;;;;;;;1.57;1.47;;;;;;;;;;5005712;28;20269;-64
2022/04/25 02:03:17;;;;;;;1.70;1.60;;;;;;;;;;5008647;28;20247;-64
2022/04/25 02:05:44;;;;;;;1.70;1.60;;;;;;;;;;5008062;28;20258;-64
2022/04/25 02:08:11;;;;;;;4.00;2.20;;;;;;;;;;5009425;28;20273;-63
2022/04/25 02:10:39;;;;;;;1.63;1.53;;;;;;;;;;4999943;28;20192;-64
2022/04/25 02:13:06;;;;;;;2.20;1.97;;;;;;;;;;5011504;28;20254;-64
2022/04/25 02:15:33;;;;;;;1.80;1.70;;;;;;;;;;5006476;28;20593;-65
2022/04/25 02:18:00;;;;;;;2.00;1.80;;;;;;;;;;5009040;28;20199;-64
2022/04/25 02:20:27;;;;;;;2.00;1.80;;;;;;;;;;5008571;28;20248;-64
2022/04/25 02:22:54;;;;;;;2.40;1.70;;;;;;;;;;5015833;28;20617;-64
2022/04/25 02:25:21;;;;;;;1.70;1.40;;;;;;;;;;5017980;28;20211;-64
2022/04/25 02:27:48;;;;;;;1.80;1.57;;;;;;;;;;5021763;28;20211;-64
2022/04/25 02:30:15;;;;;;;2.03;1.70;;;;;;;;;;5046980;28;20210;-64
2022/04/25 02:32:43;;;;;;;2.00;1.63;;;;;;;;;;5017927;28;20227;-64
2022/04/25 02:35:10;;;;;;;1.70;1.57;;;;;;;;;;5012110;28;20299;-64
2022/04/25 02:37:37;;;;;;;2.07;1.87;;;;;;;;;;5007597;28;20203;-64
2022/04/25 02:40:05;;;;;;;3.07;1.93;;;;;;;;;;5017402;28;20211;-64
2022/04/25 02:42:32;;;;;;;3.87;1.87;;;;;;;;;;5012980;28;20292;-64
2022/04/25 02:44:59;;;;;;;2.60;1.87;;;;;;;;;;5021497;28;20319;-64
2022/04/25 02:47:26;;;;;;;1.80;1.70;;;;;;;;;;5003776;28;20583;-64
2022/04/25 02:49:53;;;;;;;2.00;1.80;;;;;;;;;;5009684;28;20191;-64
2022/04/25 02:52:20;;;;;;;2.00;1.80;;;;;;;;;;5009022;28;20294;-64
2022/04/25 02:54:47;;;;;;;2.60;1.83;;;;;;;;;;5008318;28;20634;-64
2022/04/25 02:57:15;;;;;;;5.60;1.90;;;;;;;;;;5007809;28;20271;-64
2022/04/25 02:59:42;;;;;;;2.20;2.00;;;;;;;;;;5002646;28;20246;-64
2022/04/25 03:02:09;;;;;;;1.90;1.67;;;;;;;;;;5007898;28;20668;-64
2022/04/25 03:04:36;;;;;;;2.97;1.80;;;;;;;;;;5007955;28;20212;-64
2022/04/25 03:07:03;;;;;;;1.80;1.70;;;;;;;;;;5014155;28;20211;-64
2022/04/25 03:09:31;;;;;;;2.10;1.90;;;;;;;;;;5003922;28;20204;-64
2022/04/25 03:11:58;;;;;;;2.07;1.90;;;;;;;;;;5004958;28;20227;-64
2022/04/25 03:14:26;;;;;;;2.07;1.80;;;;;;;;;;5012401;28;20207;-64
2022/04/25 03:16:53;;;;;;;1.87;1.70;;;;;;;;;;5007021;28;20547;-63
2022/04/25 03:19:20;;;;;;;2.13;1.73;;;;;;;;;;5004157;28;20192;-63
2022/04/25 03:21:48;;;;;;;1.80;1.70;;;;;;;;;;5005476;28;20614;-63
2022/04/25 03:24:15;;;;;;;2.07;1.37;;;;;;;;;;5022380;28;20203;-63
2022/04/25 03:26:42;;;;;;;1.83;1.60;;;;;;;;;;5009070;28;20192;-64
2022/04/25 03:29:09;;;;;;;1.77;1.67;;;;;;;;;;5007143;28;20191;-64
2022/04/25 03:31:37;;;;;;;1.83;1.73;;;;;;;;;;5004614;28;20445;-64
2022/04/25 03:34:04;;;;;;;2.27;1.90;;;;;;;;;;5007369;28;20210;-64
2022/04/25 03:36:31;;;;;;;2.57;2.07;;;;;;;;;;5004967;28;20247;-64
2022/04/25 03:38:58;;;;;;;3.50;2.00;;;;;;;;;;5007727;28;20211;-64
2022/04/25 03:41:25;;;;;;;2.03;1.60;;;;;;;;;;5004493;28;20747;-64
2022/04/25 03:43:52;;;;;;;1.70;1.60;;;;;;;;;;5021942;28;20203;-65
2022/04/25 03:46:19;;;;;;;2.70;2.40;;;;;;;;;;5015621;28;20270;-64
2022/04/25 03:48:46;;;;;;;2.10;1.90;;;;;;;;;;5004640;28;20775;-64
2022/04/25 03:51:14;;;;;;;1.90;1.67;;;;;;;;;;5029533;28;20184;-64
2022/04/25 03:53:41;;;;;;;2.13;1.93;;;;;;;;;;5017369;28;20223;-64
2022/04/25 03:58:54;;;;;;;3.43;2.10;;;;;;;;;;5006688;28;20196;-64
2022/04/25 04:01:21;;;;;;;2.17;1.93;;;;;;;;;;5001532;28;20204;-63
2022/04/25 04:03:48;;;;;;;1.90;1.80;;;;;;;;;;5010251;28;20231;-63
2022/04/25 04:06:16;;;;;;;3.13;1.93;;;;;;;;;;5006979;28;20208;-63
2022/04/25 04:08:43;;;;;;;2.27;2.07;;;;;;;;;;5007088;28;20246;-64
2022/04/25 04:11:10;;;;;;;5.00;2.37;;;;;;;;;;5013653;28;20253;-62
2022/04/25 04:13:38;;;;;;;2.10;1.87;;;;;;;;;;5014525;28;20704;-62
2022/04/25 04:16:08;;;;;;;2.17;1.80;;;;;;;;;;5023526;28;20215;-64
2022/04/25 04:18:41;;;;;;;2.20;1.70;;;;;;;;;;5006061;28;20207;-64
2022/04/25 04:21:14;;;;;;;3.00;2.07;;;;;;;;;;5017187;28;20208;-63
2022/04/25 04:23:44;;;;;;;2.27;2.00;;;;;;;;;;5018384;28;20677;-63
2022/04/25 04:26:15;;;;;;;2.30;2.10;;;;;;;;;;5030556;28;20278;-64
2022/04/25 04:28:44;;;;;;;3.03;1.77;;;;;;;;;;5019720;28;20648;-64
2022/04/25 04:31:11;;;;;;;2.17;1.97;;;;;;;;;;5010076;28;20945;-63
2022/04/25 04:33:38;;;;;;;2.43;2.10;;;;;;;;;;5020761;28;20215;-64
2022/04/25 04:36:19;;;;;;;2.33;2.10;;;;;;;;;;5009132;28;20231;-63
2022/04/25 04:38:52;;;;;;;2.30;2.00;;;;;;;;;;5010252;28;20198;-63
2022/04/25 04:41:20;;;;;;;2.60;2.10;;;;;;;;;;5008603;28;20207;-63
2022/04/25 04:43:48;;;;;;;2.40;2.10;;;;;;;;;;5023889;28;20203;-64
2022/04/25 04:46:18;;;;;;;2.23;2.10;;;;;;;;;;5017083;28;20231;-62
2022/04/25 04:48:46;;;;;;;2.60;2.03;;;;;;;;;;5007840;28;20219;-62
2022/04/25 04:51:14;;;;;;;2.90;2.20;;;;;;;;;;5026280;28;20191;-63
2022/04/25 04:53:41;;;;;;;2.17;1.97;;;;;;;;;;5015562;28;20297;-63
2022/04/25 04:56:08;;;;;;;2.90;2.53;;;;;;;;;;5010713;28;20486;-63
2022/04/25 04:58:39;;;;;;;2.50;2.00;;;;;;;;;;5009833;28;20291;-64
2022/04/25 05:01:07;;;;;;;1.93;1.77;;;;;;;;;;5007522;28;20537;-63
2022/04/25 05:03:41;;;;;;;2.67;2.13;;;;;;;;;;5018488;28;20249;-63
2022/04/25 05:06:14;;;;;;;2.53;2.20;;;;;;;;;;5010273;28;20211;-63
2022/04/25 05:08:41;;;;;;;2.10;1.90;;;;;;;;;;5009332;28;20199;-63
2022/04/25 05:11:11;;;;;;;2.67;2.20;;;;;;;;;;5009110;28;20200;-64
2022/04/25 05:13:38;;;;;;;2.03;1.90;;;;;;;;;;5008921;28;20283;-64
2022/04/25 05:16:06;;;;;;;2.47;2.10;;;;;;;;;;5009647;28;20233;-63
2022/04/25 05:18:33;;;;;;;4.07;2.10;;;;;;;;;;5041105;28;20200;-63
2022/04/25 05:21:01;;;;;;;2.33;2.03;;;;;;;;;;5004937;28;20271;-62
2022/04/25 05:23:29;;;;;;;3.47;2.30;;;;;;;;;;5005846;28;20273;-63
2022/04/25 05:25:56;;;;;;;6.47;2.93;;;;;;;;;;5009933;28;20200;-63
2022/04/25 05:28:25;;;;;;;8.23;4.43;;;;;;;;;;5007861;28;20692;-63
2022/04/25 05:30:52;;;;;;;8.33;4.20;;;;;;;;;;5008694;28;20223;-62
2022/04/25 05:33:19;;;;;;;16.43;5.07;;;;;;;;;;5017867;28;20210;-62
2022/04/25 05:35:48;;;;;;;11.37;4.63;;;;;;;;;;5010616;28;20349;-64
2022/04/25 05:38:15;;;;;;;13.07;5.20;;;;;;;;;;5008949;28;20204;-65
2022/04/25 05:40:42;;;;;;;12.20;5.03;;;;;;;;;;5008883;28;20204;-63
2022/04/25 05:43:10;;;;;;;11.00;5.33;;;;;;;;;;5017549;28;20672;-62
2022/04/25 05:45:37;;;;;;;11.23;4.87;;;;;;;;;;5007363;28;21018;-63
2022/04/25 05:51:58;;;;;;;11.40;4.53;;;;;;;;;;5006064;28;20323;-66
2022/04/25 05:53:41;;;;;;;10.97;4.63;;;;;;;;;;5006737;28;20231;-64
2022/04/25 05:56:11;;;;;;;9.80;4.60;;;;;;;;;;5007537;28;20262;-63
2022/04/25 05:58:43;;;;;;;9.40;4.67;;;;;;;;;;5006883;28;20739;-63
2022/04/25 06:01:12;;;;;;;9.57;5.43;;;;;;;;;;5006404;28;20297;-63
2022/04/25 06:03:41;;;;;;;10.60;4.83;;;;;;;;;;5001473;28;20196;-63
2022/04/25 06:06:08;;;;;;;7.37;4.37;;;;;;;;;;5007311;28;20218;-62
2022/04/25 06:08:36;;;;;;;9.73;4.93;;;;;;;;;;5007901;28;20208;-63
2022/04/25 06:11:04;;;;;;;8.87;4.07;;;;;;;;;;5007768;28;20573;-64
2022/04/25 06:13:31;;;;;;;7.27;4.27;;;;;;;;;;5000258;28;21607;-64
2022/04/25 06:15:58;;;;;;;6.93;4.20;;;;;;;;;;5003055;28;20269;-64
2022/04/25 06:18:26;;;;;;;6.20;4.13;;;;;;;;;;5004624;28;20254;-64
2022/04/25 06:20:53;;;;;;;8.70;4.73;;;;;;;;;;5034953;28;20200;-63
2022/04/25 06:23:20;;;;;;;6.20;4.27;;;;;;;;;;5004085;28;20853;-63
2022/04/25 06:25:49;;;;;;;6.83;4.27;;;;;;;;;;5002790;28;20219;-63
2022/04/25 06:28:18;;;;;;;6.07;4.00;;;;;;;;;;5004303;28;20199;-63
2022/04/25 06:30:45;;;;;;;7.00;4.70;;;;;;;;;;5005157;28;20206;-63
2022/04/25 06:33:12;;;;;;;7.17;3.77;;;;;;;;;;5006041;28;20266;-64
2022/04/25 06:35:39;;;;;;;8.10;4.57;;;;;;;;;;5001685;28;20725;-65
2022/04/25 06:38:06;;;;;;;7.43;4.57;;;;;;;;;;4982081;28;20200;-62
2022/04/25 06:40:33;;;;;;;6.97;4.60;;;;;;;;;;5006949;28;20204;-62
2022/04/25 06:43:00;;;;;;;5.57;4.30;;;;;;;;;;5006986;28;20257;-62
2022/04/25 06:45:29;;;;;;;6.30;3.70;;;;;;;;;;4998277;28;20200;-63
2022/04/25 06:47:57;;;;;;;8.50;4.20;;;;;;;;;;4999811;28;20246;-63
2022/04/25 06:50:29;;;;;;;5.40;3.80;;;;;;;;;;5000197;28;20335;-63
2022/04/25 06:52:57;;;;;;;5.60;3.83;;;;;;;;;;5006654;28;20228;-67
2022/04/25 06:55:28;;;;;;;12.18;4.47;;;;;;;;;;4996969;28;20426;-65
2022/04/25 06:58:00;;;;;;;6.37;4.07;;;;;;;;;;5002010;28;20207;-65
2022/04/25 07:00:30;;;;;;;6.20;3.80;;;;;;;;;;5002364;28;20246;-66
2022/04/25 07:03:04;;;;;;;9.47;3.90;;;;;;;;;;5006694;28;20209;-63
2022/04/25 07:05:37;;;;;;;8.00;3.70;;;;;;;;;;5010297;28;20205;-62
2022/04/25 07:08:07;;;;;;;6.10;3.70;;;;;;;;;;5009021;28;20219;-62
2022/04/25 07:10:35;;;;;;;7.40;4.10;;;;;;;;;;5013504;28;20828;-63
2022/04/25 07:13:07;;;;;;;8.33;4.43;;;;;;;;;;5008157;28;20212;-63
2022/04/25 07:15:39;;;;;;;8.13;3.50;;;;;;;;;;5001057;28;20726;-63
2022/04/25 07:18:13;;;;;;;10.47;3.63;;;;;;;;;;5011029;28;20196;-62
2022/04/25 07:20:41;;;;;;;5.30;3.27;;;;;;;;;;5002836;28;20663;-64
2022/04/25 07:28:57;;;;;;;5.00;3.47;;;;;;;;;;5002261;28;20215;-63
2022/04/25 07:31:32;;;;;;;3.90;2.73;;;;;;;;;;5007477;28;20541;-62
2022/04/25 07:34:02;;;;;;;5.27;3.10;;;;;;;;;;5017500;28;20224;-62
2022/04/25 07:36:30;;;;;;;5.33;3.30;;;;;;;;;;5005391;28;20227;-61
2022/04/25 07:39:01;;;;;;;7.20;3.33;;;;;;;;;;5014063;28;20209;-63
2022/04/25 07:41:28;;;;;;;7.27;3.53;;;;;;;;;;5006840;28;20211;-61
2022/04/25 07:43:58;;;;;;;4.77;3.03;;;;;;;;;;5014562;28;20545;-61
2022/04/25 07:46:28;;;;;;;6.53;3.23;;;;;;;;;;5014934;28;20309;-61
2022/04/25 07:49:01;;;;;;;5.57;3.10;;;;;;;;;;5004783;28;20306;-61
2022/04/25 07:51:48;;;;;;;6.80;3.03;;;;;;;;;;5008857;28;20207;-60
2022/04/25 07:54:16;;;;;;;5.00;3.43;;;;;;;;;;5007602;28;20200;-62
2022/04/25 07:56:48;;;;;;;4.47;2.90;;;;;;;;;;5016281;28;20289;-62
2022/04/25 07:59:19;;;;;;;5.23;3.13;;;;;;;;;;5011830;28;20720;-61
2022/04/25 08:01:46;;;;;;;3.70;3.30;;;;;;;;;;5011054;28;20276;-61
2022/04/25 08:04:18;;;;;;;4.43;3.47;;;;;;;;;;5009300;28;20339;-61
2022/04/25 08:06:51;;;;;;;6.30;3.40;;;;;;;;;;5009398;28;20227;-61
2022/04/25 08:09:21;;;;;;;3.90;3.20;;;;;;;;;;5008070;28;20207;-61
2022/04/25 08:17:56;;;;;;;5.33;3.10;;;;;;;;;;5012509;28;20217;-61
2022/04/25 08:20:22;;;;;;;3.77;2.83;;;;;;;;;;5005514;28;20207;-62
2022/04/25 08:22:54;;;;;;;4.03;2.83;;;;;;;;;;5010206;28;20212;-62
2022/04/25 08:25:25;;;;;;;5.17;3.23;;;;;;;;;;5021227;28;20739;-63
2022/04/25 08:27:56;;;;;;;3.90;2.80;;;;;;;;;;5010565;28;20218;-63
2022/04/25 08:30:28;;;;;;;4.57;3.27;;;;;;;;;;5002561;28;20274;-64
2022/04/25 08:32:56;;;;;;;3.33;2.67;;;;;;;;;;5009104;28;20950;-63
2022/04/25 08:35:23;;;;;;;3.67;2.60;;;;;;;;;;5008955;28;20199;-62
2022/04/25 08:37:50;;;;;;;4.37;2.30;;;;;;;;;;5008610;28;20238;-64
2022/04/25 08:40:17;;;;;;;2.77;2.47;;;;;;;;;;5006834;28;20208;-63
2022/04/25 08:42:45;;;;;;;2.83;2.43;;;;;;;;;;5003627;28;20195;-63
2022/04/25 08:45:13;;;;;;;3.03;2.60;;;;;;;;;;5016556;28;20204;-63
2022/04/25 08:48:00;;;;;;;6.13;2.70;;;;;;;;;;5005016;28;20196;-64
2022/04/25 08:50:28;;;;;;;3.93;2.53;;;;;;;;;;5009917;28;20195;-64
2022/04/25 08:52:56;;;;;;;3.77;2.73;;;;;;;;;;5010904;28;20976;-63
2022/04/25 08:55:26;;;;;;;4.90;2.80;;;;;;;;;;5010249;28;20208;-63
2022/04/25 08:57:57;;;;;;;4.43;2.30;;;;;;;;;;4999550;28;20207;-64
2022/04/25 09:00:25;;;;;;;3.07;2.23;;;;;;;;;;5007392;28;20222;-63
2022/04/25 09:02:59;;;;;;;4.37;2.20;;;;;;;;;;5042381;28;20207;-62
2022/04/25 09:05:40;;;;;;;3.67;2.70;;;;;;;;;;5007982;28;20191;-63
2022/04/25 09:08:11;;;;;;;3.47;2.43;;;;;;;;;;5008314;28;20707;-64
2022/04/25 09:10:42;;;;;;;4.07;2.40;;;;;;;;;;5009159;28;20210;-62
2022/04/25 09:13:11;;;;;;;3.00;2.70;;;;;;;;;;5009573;28;20253;-62
2022/04/25 09:15:39;;;;;;;3.93;2.20;;;;;;;;;;5006016;28;20224;-62
2022/04/25 09:18:08;;;;;;;2.80;2.20;;;;;;;;;;5006530;28;20281;-64
2022/04/25 09:20:40;;;;;;;5.03;2.53;;;;;;;;;;5007390;28;20198;-62
2022/04/25 09:23:21;;;;;;;4.30;2.57;;;;;;;;;;5004634;28;20754;-62
2022/04/25 09:26:08;;;;;;;3.07;2.50;;;;;;;;;;5035675;28;20219;-62
2022/04/25 09:28:51;;;;;;;3.70;2.60;;;;;;;;;;5008943;28;20212;-62
2022/04/25 09:31:19;;;;;;;2.50;2.30;;;;;;;;;;5001071;28;20227;-63
2022/04/25 09:33:54;;;;;;;2.97;2.37;;;;;;;;;;5015651;28;20668;-63
2022/04/25 09:36:55;;;;;;;2.63;2.43;;;;;;;;;;5002233;28;20259;-62
2022/04/25 09:39:31;;;;;;;2.43;2.10;;;;;;;;;;5007569;28;20212;-63
2022/04/25 09:42:02;;;;;;;4.23;2.13;;;;;;;;;;5008685;28;20191;-63
2022/04/25 09:44:54;;;;;;;1.93;1.73;;;;;;;;;;5011742;28;20195;-63
2022/04/25 09:47:31;;;;;;;5.33;2.20;;;;;;;;;;5010343;28;20222;-62
2022/04/25 09:50:03;;;;;;;2.40;2.20;;;;;;;;;;5008727;28;20625;-62
2022/04/25 09:52:55;;;;;;;3.57;2.63;;;;;;;;;;5007406;28;20330;-62
2022/04/25 09:55:29;;;;;;;2.93;2.40;;;;;;;;;;4997671;28;20697;-62
2022/04/25 09:57:59;;;;;;;2.00;1.80;;;;;;;;;;5011630;28;20218;-62
2022/04/25 10:00:38;;;;;;;2.43;2.10;;;;;;;;;;5005468;28;20601;-63
2022/04/25 10:03:09;;;;;;;2.67;2.40;;;;;;;;;;5010993;28;20191;-63
2022/04/25 10:05:44;;;;;;;3.17;2.40;;;;;;;;;;5010700;28;20191;-61
2022/04/25 10:08:14;;;;;;;2.97;2.73;;;;;;;;;;5007685;28;20218;-61
2022/04/25 10:10:48;;;;;;;2.93;2.73;;;;;;;;;;5008029;28;20245;-61
2022/04/25 10:13:18;;;;;;;2.63;2.43;;;;;;;;;;5005354;28;20215;-61
2022/04/25 10:15:46;;;;;;;2.97;2.60;;;;;;;;;;5009668;28;20207;-61
2022/04/25 10:18:14;;;;;;;3.03;2.73;;;;;;;;;;5007801;28;20278;-62
2022/04/25 10:20:42;;;;;;;2.57;2.37;;;;;;;;;;5007971;28;20196;-61
2022/04/25 10:23:10;;;;;;;2.53;2.23;;;;;;;;;;5008448;28;20196;-61
2022/04/25 10:25:38;;;;;;;2.80;2.60;;;;;;;;;;5005278;28;20239;-61
2022/04/25 10:28:12;;;;;;;2.50;2.30;;;;;;;;;;5007707;28;20269;-61
2022/04/25 10:30:47;;;;;;;2.37;2.17;;;;;;;;;;5008180;28;20208;-61
2022/04/25 10:33:16;;;;;;;4.00;2.50;;;;;;;;;;5037589;28;20203;-61
2022/04/25 10:35:44;;;;;;;3.73;2.33;;;;;;;;;;5002139;28;20723;-61
2022/04/25 10:38:48;;;;;;;2.90;2.70;;;;;;;;;;5003434;28;20309;-61
2022/04/25 10:44:19;;;;;;;2.97;2.63;;;;;;;;;;5006936;28;20261;-61
2022/04/25 10:47:07;;;;;;;2.60;2.40;;;;;;;;;;5005729;28;20753;-61
2022/04/25 10:49:35;;;;;;;4.27;2.60;;;;;;;;;;5000539;28;20254;-61
2022/04/25 10:52:04;;;;;;;3.60;2.67;;;;;;;;;;5020166;28;20706;-62
2022/04/25 10:54:51;;;;;;;3.10;2.90;;;;;;;;;;5007248;28;20211;-62
2022/04/25 10:57:22;;;;;;;4.63;2.90;;;;;;;;;;5005402;28;20218;-61
2022/04/25 11:00:05;;;;;;;2.93;2.70;;;;;;;;;;4996212;28;20749;-61
2022/04/25 11:02:35;;;;;;;2.67;2.37;;;;;;;;;;5004306;28;20195;-63
2022/04/25 11:05:19;;;;;;;2.63;2.33;;;;;;;;;;5004813;28;20199;-63
2022/04/25 11:07:49;;;;;;;3.00;2.53;;;;;;;;;;5005480;28;20680;-63
2022/04/25 11:10:37;;;;;;;4.07;2.77;;;;;;;;;;4993468;28;20857;-63
2022/04/25 11:13:04;;;;;;;4.70;2.53;;;;;;;;;;4996310;28;20569;-63
2022/04/25 11:15:39;;;;;;;4.83;2.70;;;;;;;;;;5005202;28;20285;-62
2022/04/25 11:18:33;;;;;;;3.17;2.37;;;;;;;;;;4992985;28;20692;-61
2022/04/25 11:21:20;;;;;;;3.17;2.43;;;;;;;;;;4986805;28;20224;-63
2022/04/25 11:23:50;;;;;;;2.70;2.37;;;;;;;;;;5003215;28;20215;-64
2022/04/25 11:26:25;;;;;;;3.50;2.20;;;;;;;;;;5024899;28;20503;-64
2022/04/25 11:29:09;;;;;;;3.33;2.27;;;;;;;;;;5011831;28;20905;-65
2022/04/25 11:31:38;;;;;;;3.20;2.60;;;;;;;;;;5003180;28;20204;-63
2022/04/25 11:34:07;;;;;;;3.43;2.10;;;;;;;;;;5003375;28;20614;-65
2022/04/25 11:36:45;;;;;;;2.57;2.00;;;;;;;;;;4998614;28;20216;-64
2022/04/25 11:42:09;;;;;;;2.40;2.20;;;;;;;;;;5006138;28;20648;-64
2022/04/25 11:44:40;;;;;;;2.90;2.30;;;;;;;;;;5011271;28;20207;-64
2022/04/25 11:47:15;;;;;;;3.23;2.33;;;;;;;;;;5007733;28;20203;-63
2022/04/25 11:49:44;;;;;;;3.13;2.37;;;;;;;;;;5001803;28;20270;-64
2022/04/25 11:52:17;;;;;;;2.33;2.13;;;;;;;;;;5003415;28;20231;-64
2022/04/25 11:54:50;;;;;;;2.43;2.20;;;;;;;;;;5011153;28;20205;-64
2022/04/25 11:57:18;;;;;;;5.10;3.07;;;;;;;;;;5012690;28;20224;-64
2022/04/25 11:59:48;;;;;;;6.70;3.60;;;;;;;;;;5002413;28;20217;-64
2022/04/25 12:02:17;;;;;;;8.17;3.70;;;;;;;;;;5006172;28;20208;-65
2022/04/25 12:04:48;;;;;;;8.47;3.10;;;;;;;;;;5034336;28;20632;-63
2022/04/25 12:07:15;;;;;;;5.47;3.07;;;;;;;;;;5003897;28;20199;-63
2022/04/25 12:15:37;;;;;;;4.70;2.90;;;;;;;;;;5008486;28;20192;-65
2022/04/25 12:18:20;;;;;;;5.00;3.20;;;;;;;;;;5006381;28;20226;-62
2022/04/25 12:20:54;;;;;;;6.80;2.97;;;;;;;;;;5006898;28;20209;-62
2022/04/25 12:23:25;;;;;;;3.73;2.60;;;;;;;;;;5000864;28;20191;-63
2022/04/25 12:25:58;;;;;;;3.10;2.70;;;;;;;;;;5022292;28;20586;-64
2022/04/25 12:28:32;;;;;;;4.37;3.13;;;;;;;;;;5015604;28;20235;-65
2022/04/25 12:31:06;;;;;;;3.80;2.70;;;;;;;;;;5005191;28;20223;-64
2022/04/25 12:33:35;;;;;;;6.53;2.67;;;;;;;;;;5009737;28;20282;-65
2022/04/25 12:36:22;;;;;;;5.30;2.77;;;;;;;;;;5020606;28;20215;-63
2022/04/25 12:38:52;;;;;;;4.83;3.03;;;;;;;;;;5013562;28;20220;-63
2022/04/25 12:41:39;;;;;;;3.37;2.83;;;;;;;;;;5005915;28;20206;-64
2022/04/25 12:44:10;;;;;;;3.80;2.50;;;;;;;;;;5009604;28;20265;-63
2022/04/25 12:46:37;;;;;;;3.00;2.43;;;;;;;;;;5009427;28;20203;-64
2022/04/25 12:49:08;;;;;;;2.83;2.40;;;;;;;;;;5001776;28;20207;-64
2022/04/25 12:51:39;;;;;;;4.23;3.00;;;;;;;;;;5007586;28;20342;-64
2022/04/25 12:54:30;;;;;;;3.60;2.40;;;;;;;;;;5009345;28;20906;-64
2022/04/25 12:57:17;;;;;;;3.10;2.53;;;;;;;;;;5003909;28;20200;-63
2022/04/25 12:59:45;;;;;;;2.83;2.47;;;;;;;;;;5003721;28;20681;-64
2022/04/25 13:02:17;;;;;;;3.33;2.53;;;;;;;;;;5006140;28;20207;-65
2022/04/25 13:04:58;;;;;;;3.83;2.50;;;;;;;;;;5007765;28;20187;-63
2022/04/25 13:07:30;;;;;;;3.73;2.70;;;;;;;;;;5005200;28;20281;-64
2022/04/25 13:10:00;;;;;;;3.00;2.33;;;;;;;;;;5007621;28;20278;-64
2022/04/25 13:12:36;;;;;;;3.23;2.40;;;;;;;;;;5005287;28;20207;-64
2022/04/25 13:15:14;;;;;;;4.70;2.73;;;;;;;;;;5008068;28;20659;-63
2022/04/25 13:17:56;;;;;;;2.87;2.37;;;;;;;;;;5007851;28;20235;-64
2022/04/25 13:20:30;;;;;;;2.80;1.90;;;;;;;;;;5005768;28;20199;-64
2022/04/25 13:22:59;;;;;;;2.50;2.30;;;;;;;;;;5008546;28;20912;-66
2022/04/25 13:25:29;;;;;;;2.87;2.23;;;;;;;;;;4999939;28;20223;-64
2022/04/25 13:28:01;;;;;;;2.93;2.53;;;;;;;;;;5007738;28;20196;-64
2022/04/25 13:30:31;;;;;;;2.60;2.30;;;;;;;;;;5008631;28;20192;-65
2022/04/25 13:33:03;;;;;;;3.13;2.50;;;;;;;;;;5005227;28;20257;-64
2022/04/25 13:35:32;;;;;;;3.37;2.13;;;;;;;;;;5006693;28;20230;-62
2022/04/25 13:38:02;;;;;;;3.07;2.50;;;;;;;;;;5007611;28;20223;-63
2022/04/25 13:40:30;;;;;;;3.63;2.20;;;;;;;;;;5008625;28;20192;-62
2022/04/25 13:43:04;;;;;;;2.27;1.90;;;;;;;;;;5007433;28;20200;-63
2022/04/25 13:45:53;;;;;;;3.77;2.40;;;;;;;;;;5013853;28;20251;-63
2022/04/25 13:48:37;;;;;;;3.17;2.37;;;;;;;;;;5001315;28;20276;-64
2022/04/25 13:51:07;;;;;;;2.73;2.30;;;;;;;;;;5007582;28;20196;-63
2022/04/25 13:53:38;;;;;;;3.27;2.50;;;;;;;;;;4999918;28;20724;-64
2022/04/25 13:56:09;;;;;;;3.17;2.60;;;;;;;;;;5007691;28;20777;-64
2022/04/25 13:58:37;;;;;;;3.50;2.57;;;;;;;;;;5004614;28;20235;-63
2022/04/25 14:01:07;;;;;;;3.10;2.47;;;;;;;;;;5002890;28;20211;-63
2022/04/25 14:03:41;;;;;;;2.87;2.40;;;;;;;;;;5002955;28;20195;-62
2022/04/25 14:06:18;;;;;;;2.80;2.40;;;;;;;;;;5011523;28;20211;-64
2022/04/25 14:08:47;;;;;;;3.27;2.63;;;;;;;;;;5007880;28;20195;-64
2022/04/25 14:11:24;;;;;;;2.77;2.27;;;;;;;;;;5002411;28;20191;-63
2022/04/25 14:13:58;;;;;;;3.00;2.70;;;;;;;;;;5006950;28;20207;-65
2022/04/25 14:16:31;;;;;;;2.30;2.10;;;;;;;;;;5007819;28;20200;-64
2022/04/25 14:19:01;;;;;;;3.13;2.30;;;;;;;;;;5007186;28;20226;-64
2022/04/25 14:21:32;;;;;;;2.53;2.30;;;;;;;;;;5004902;28;20184;-64
2022/04/25 14:24:03;;;;;;;3.20;2.70;;;;;;;;;;5004652;28;20736;-63
2022/04/25 14:26:34;;;;;;;3.13;2.70;;;;;;;;;;5000104;28;20199;-61
2022/04/25 14:29:12;;;;;;;2.80;2.60;;;;;;;;;;5004342;28;20179;-61
2022/04/25 14:31:44;;;;;;;2.77;2.40;;;;;;;;;;5004754;28;20204;-62
2022/04/25 14:34:13;;;;;;;2.97;2.67;;;;;;;;;;5007916;28;20211;-61
2022/04/25 14:36:43;;;;;;;2.97;2.63;;;;;;;;;;5001890;28;20216;-60
2022/04/25 14:39:15;;;;;;;3.27;2.87;;;;;;;;;;5007074;28;21031;-60
2022/04/25 14:41:45;;;;;;;3.50;2.87;;;;;;;;;;5002683;28;20196;-62
2022/04/25 14:44:13;;;;;;;2.93;2.70;;;;;;;;;;5001917;28;20285;-62
2022/04/25 14:46:45;;;;;;;2.90;2.60;;;;;;;;;;5004504;28;20187;-60
2022/04/25 14:54:20;;;;;;;3.17;2.80;;;;;;;;;;5003157;28;20199;-60
2022/04/25 14:54:59;;;;;;;3.00;2.70;;;;;;;;;;5006253;28;20188;-61
2022/04/25 14:57:40;;;;;;;3.43;3.10;;;;;;;;;;4998661;28;20214;-61
2022/04/25 15:00:15;;;;;;;3.23;2.90;;;;;;;;;;5004835;28;20215;-60
2022/04/25 15:02:44;;;;;;;2.77;2.57;;;;;;;;;;5002505;28;20231;-60
2022/04/25 15:05:16;;;;;;;3.43;3.00;;;;;;;;;;5002883;28;20192;-61
2022/04/25 15:07:46;;;;;;;3.67;3.33;;;;;;;;;;5003166;28;20592;-61
2022/04/25 15:10:16;;;;;;;3.53;3.23;;;;;;;;;;5007096;28;20562;-60
2022/04/25 15:12:46;;;;;;;4.00;2.93;;;;;;;;;;5003618;28;20219;-60
2022/04/25 15:15:14;;;;;;;4.43;3.40;;;;;;;;;;5005067;28;20199;-60
2022/04/25 15:17:42;;;;;;;3.27;2.77;;;;;;;;;;5003278;28;20826;-60
2022/04/25 15:20:11;;;;;;;3.73;3.23;;;;;;;;;;5006451;28;20204;-61
2022/04/25 15:22:41;;;;;;;3.40;2.90;;;;;;;;;;5005739;28;20196;-61
2022/04/25 15:25:08;;;;;;;3.50;3.20;;;;;;;;;;5003365;28;20270;-61
2022/04/25 15:27:36;;;;;;;3.87;3.33;;;;;;;;;;5003538;28;20207;-61
2022/04/25 15:30:06;;;;;;;3.63;2.97;;;;;;;;;;5006180;28;20199;-61
2022/04/25 15:32:33;;;;;;;3.47;2.83;;;;;;;;;;5004530;28;20804;-60
2022/04/25 15:35:01;;;;;;;4.60;3.07;;;;;;;;;;5004349;28;20204;-60
2022/04/25 15:37:46;;;;;;;3.60;3.10;;;;;;;;;;5000889;28;20278;-61
2022/04/25 15:40:17;;;;;;;4.27;3.60;;;;;;;;;;5006480;28;20196;-61
2022/04/25 15:42:47;;;;;;;4.73;3.43;;;;;;;;;;5005339;28;20254;-61